Key West NAF, FL

9:12 PM EDT on March 30, 2017 (GMT -0400)
Key West Naval Air Station | | Change Station

Elev 3 ft 24.57 °N, 81.69 °W | Updated 19 minutes ago

Clear
Clear
76 °F
Feels Like 76 °F
N
12
Wind Variable Wind from ESE

Today
High -- | Low -- °F
--% Chance of Precip.
Yesterday
High -- | Low -- °F
Precip. -- in
Pressure 29.94 in
Visibility 10.0 miles
Clouds Clear
Dew Point 67 °F
Humidity 74%
Rainfall 0.00 in
Snow Depth Not available.
7:20 AM 7:42 PM
Waxing Crescent, 12% visible
METAR KNQX 310053Z 11010KT 10SM CLR 24/19 A2995 RMK AO2 SLP139 T02440194 $
Pressure 29.94 in
Visibility 10.0 miles
Clouds Clear
Dew Point 67 °F
Humidity 74%
Rainfall 0.00 in
Snow Depth Not available.
7:20 AM 7:42 PM
Waxing Crescent, 12% visible
METAR KNQX 310053Z 11010KT 10SM CLR 24/19 A2995 RMK AO2 SLP139 T02440194 $

Get Severe Weather Alerts

Thanks for signing up!

Be on the lookout for a verification email in your inbox.

You'll start receiving the daily forecast at 8 AM.

×

10-Day Weather Forecast

Almanac

Astronomy

Mar. 30, 2017 Rise Set
Actual Time
Civil Twilight
Nautical Twilight
Astronomical Twilight
Moon
Length of Visible Light
Length of Day
Tomorrow will be .
, % of the Moon is Illuminated

Today's Extremes

State Highs State Lows

Community

WunderPhotos

Upload Photos

1,962,540 photos uploaded!

WunderBlog® & News

Nearby

Air Quality

  Air Quality AQ Index Pollutant
Not available.

Snow Depth

Station Depth Elevation

Earthquake Activity

City Distance Mag. Time & Date
Minimum magnitude displayed is 2.5.

Earthquake Activity

City Distance Mag. Time & Date
Minimum magnitude displayed is 2.5.

Coastal Water Temperatures

Place Temperature

Stations

Nearby Weather Stations

Station Location Temp. Windchill Dew Point Humidity Wind Precip. Elev Updated Type
                   

Watches & Warnings

There are currently no watches in effect.